Time;durP1;ratioP1;P1;durP2;ratioP2;P2;SDS_P1;SDS_P2;PMS_P1;PMS_P2;Temp;Humidity;BMP_temperature;BMP_pressure;BME280_temperature;BME280_humidity;BME280_pressure;Samples;Min_cycle;Max_cycle;Signal;HPM_P1;HPM_P2
2021/05/09 00:00:05;;;;;;;4.65;1.15;;;8.90;99.90;;;;;;1903968;73;21055;-76
2021/05/09 00:02:34;;;;;;;8.90;1.72;;;8.80;99.90;;;;;;1912651;74;21055;-78
2021/05/09 00:04:59;;;;;;;6.60;1.45;;;8.80;99.90;;;;;;1901848;75;21111;-76
2021/05/09 00:07:25;;;;;;;5.03;2.00;;;8.80;99.90;;;;;;1905356;74;21130;-75
2021/05/09 00:09:52;;;;;;;3.58;1.90;;;8.80;99.90;;;;;;1904657;75;21113;-77
2021/05/09 00:12:18;;;;;;;3.25;2.10;;;8.80;99.90;;;;;;1901188;75;21122;-77
2021/05/09 00:14:44;;;;;;;2.47;1.90;;;8.80;99.90;;;;;;1903073;75;21286;-77
2021/05/09 00:17:10;;;;;;;1.22;1.12;;;8.80;99.90;;;;;;1897715;75;21048;-77
2021/05/09 00:19:36;;;;;;;1.90;1.30;;;8.70;99.90;;;;;;1902843;75;21494;-76
2021/05/09 00:22:02;;;;;;;2.92;1.35;;;8.70;99.90;;;;;;1914038;74;21451;-76
2021/05/09 00:24:29;;;;;;;1.62;1.22;;;8.70;99.90;;;;;;1906003;75;21120;-77
2021/05/09 00:26:55;;;;;;;1.77;1.30;;;8.70;99.90;;;;;;1905368;74;21503;-76
2021/05/09 00:29:21;;;;;;;1.80;1.30;;;8.60;99.90;;;;;;1906236;74;21120;-76
2021/05/09 00:31:47;;;;;;;3.75;1.75;;;8.50;99.90;;;;;;1916129;73;21075;-77
2021/05/09 00:34:13;;;;;;;1.70;1.60;;;8.50;99.90;;;;;;1903525;74;21133;-77
2021/05/09 00:36:40;;;;;;;1.92;1.30;;;8.40;99.90;;;;;;1909813;74;21133;-77
2021/05/09 00:39:06;;;;;;;2.92;1.60;;;8.40;99.90;;;;;;1900525;74;21130;-78
2021/05/09 00:41:32;;;;;;;7.10;1.50;;;8.40;99.90;;;;;;1870941;76;21055;-77
2021/05/09 00:43:58;;;;;;;5.70;1.70;;;8.40;99.90;;;;;;1879491;75;21060;-77
2021/05/09 00:46:24;;;;;;;2.35;1.40;;;8.40;99.90;;;;;;1883058;76;21142;-76
2021/05/09 00:48:50;;;;;;;5.08;1.42;;;8.40;99.90;;;;;;1889843;76;21546;-77
2021/05/09 00:51:21;;;;;;;1.72;1.10;;;8.40;99.90;;;;;;1867115;76;21172;-74
2021/05/09 00:53:44;;;;;;;1.25;1.15;;;8.40;99.90;;;;;;1918467;74;21170;-76
2021/05/09 00:56:13;;;;;;;3.95;0.95;;;8.40;99.90;;;;;;1927200;74;21481;-76
2021/05/09 00:58:39;;;;;;;1.35;0.93;;;8.30;99.90;;;;;;1929033;74;21564;-77
2021/05/09 01:01:06;;;;;;;1.65;1.00;;;8.30;99.90;;;;;;1927292;74;21474;-77
2021/05/09 01:03:32;;;;;;;1.35;1.00;;;8.30;99.90;;;;;;1927203;74;21449;-76
2021/05/09 01:06:01;;;;;;;1.70;0.95;;;8.30;99.90;;;;;;1927336;74;21459;-75
2021/05/09 01:08:32;;;;;;;2.00;1.10;;;8.30;99.90;;;;;;1926936;73;21070;-75
2021/05/09 01:10:55;;;;;;;1.55;1.12;;;8.20;99.90;;;;;;1924606;73;21078;-77
2021/05/09 01:13:22;;;;;;;1.65;1.17;;;8.20;99.90;;;;;;1927171;74;21119;-76
2021/05/09 01:15:48;;;;;;;1.62;1.25;;;8.20;99.90;;;;;;1926240;74;21077;-77
2021/05/09 01:18:14;;;;;;;0.93;0.93;;;8.10;99.90;;;;;;1927233;73;21184;-76
2021/05/09 01:20:44;;;;;;;1.75;1.30;;;8.20;99.90;;;;;;1927223;74;21038;-76
2021/05/09 01:23:08;;;;;;;2.58;0.90;;;8.20;99.90;;;;;;1925444;74;21175;-75
2021/05/09 01:25:34;;;;;;;3.98;1.30;;;8.20;99.90;;;;;;1927296;74;21117;-75
2021/05/09 01:28:00;;;;;;;1.57;1.17;;;8.20;99.90;;;;;;1927430;74;21140;-75
2021/05/09 01:30:26;;;;;;;0.90;0.90;;;8.30;99.90;;;;;;1927518;74;21069;-75
2021/05/09 01:32:53;;;;;;;2.90;1.27;;;8.30;99.90;;;;;;1927368;74;21136;-75
2021/05/09 01:35:19;;;;;;;0.95;0.90;;;8.20;99.90;;;;;;1927524;74;21042;-75
2021/05/09 01:37:45;;;;;;;1.20;1.10;;;8.20;99.90;;;;;;1927248;74;21179;-76
2021/05/09 01:40:12;;;;;;;1.15;0.90;;;8.20;99.90;;;;;;1927219;74;21470;-76
2021/05/09 01:42:39;;;;;;;1.55;1.20;;;8.20;99.90;;;;;;1927043;74;21089;-75
2021/05/09 01:45:05;;;;;;;4.90;1.12;;;8.20;99.90;;;;;;1927044;74;21572;-76
2021/05/09 01:47:31;;;;;;;1.72;1.47;;;8.20;99.90;;;;;;1927088;74;21097;-76
2021/05/09 01:49:57;;;;;;;6.47;1.72;;;8.10;99.90;;;;;;1927072;74;21043;-76
2021/05/09 01:52:23;;;;;;;4.20;1.30;;;8.10;99.90;;;;;;1927096;74;21070;-76
2021/05/09 01:54:50;;;;;;;1.85;1.20;;;8.00;99.90;;;;;;1927158;74;21128;-76
2021/05/09 01:57:16;;;;;;;3.08;1.25;;;8.00;99.90;;;;;;1926976;73;21162;-76
2021/05/09 01:59:42;;;;;;;1.82;1.50;;;8.00;99.90;;;;;;1927011;74;21081;-75
2021/05/09 02:02:09;;;;;;;1.67;1.25;;;8.00;99.90;;;;;;1926969;74;21123;-76
2021/05/09 02:04:35;;;;;;;1.70;1.50;;;8.00;99.90;;;;;;1926966;74;21168;-76
2021/05/09 02:07:01;;;;;;;1.37;1.27;;;8.00;99.90;;;;;;1926923;74;21038;-76
2021/05/09 02:09:27;;;;;;;2.08;1.70;;;8.00;99.90;;;;;;1927078;74;21136;-76
2021/05/09 02:11:53;;;;;;;4.95;1.72;;;8.00;99.90;;;;;;1926910;73;21080;-76
2021/05/09 02:14:19;;;;;;;3.42;1.50;;;8.00;99.90;;;;;;1927036;74;21120;-75
2021/05/09 02:16:45;;;;;;;2.17;1.52;;;8.00;99.90;;;;;;1926998;74;21078;-76
2021/05/09 02:19:12;;;;;;;1.22;1.12;;;8.00;99.90;;;;;;1926994;74;21086;-76
2021/05/09 02:21:38;;;;;;;1.85;1.37;;;8.00;99.90;;;;;;1926953;74;21031;-76
2021/05/09 02:24:04;;;;;;;2.52;1.55;;;7.90;99.90;;;;;;1927049;74;21073;-76
2021/05/09 02:26:30;;;;;;;3.30;1.15;;;8.00;99.90;;;;;;1927056;74;21445;-75
2021/05/09 02:28:56;;;;;;;2.05;1.35;;;8.00;99.90;;;;;;1927274;74;21462;-76
2021/05/09 02:31:22;;;;;;;1.62;1.17;;;7.80;99.90;;;;;;1927138;74;21470;-77
2021/05/09 02:33:48;;;;;;;2.27;1.50;;;7.90;99.90;;;;;;1927122;74;21006;-76
2021/05/09 02:36:14;;;;;;;1.35;1.20;;;7.90;99.90;;;;;;1927528;74;21109;-76
2021/05/09 02:38:41;;;;;;;3.80;1.55;;;7.90;99.90;;;;;;1927559;73;21018;-76
2021/05/09 02:41:07;;;;;;;2.37;1.30;;;7.90;99.90;;;;;;1927550;74;21120;-75
2021/05/09 02:43:33;;;;;;;1.65;1.22;;;7.80;99.90;;;;;;1927678;74;21136;-74
2021/05/09 02:45:59;;;;;;;1.65;1.17;;;7.70;99.90;;;;;;1930459;73;21024;-75
2021/05/09 02:48:25;;;;;;;2.10;1.17;;;7.80;99.90;;;;;;1930585;74;21050;-76
2021/05/09 02:50:52;;;;;;;2.47;1.17;;;7.80;99.90;;;;;;1930643;73;21042;-76
2021/05/09 02:53:21;;;;;;;1.00;1.00;;;7.80;99.90;;;;;;1928340;73;21077;-75
2021/05/09 02:55:46;;;;;;;1.25;1.00;;;7.80;99.90;;;;;;1927027;74;21035;-76
2021/05/09 02:58:13;;;;;;;1.00;0.95;;;7.90;99.90;;;;;;1927060;74;21058;-76
2021/05/09 03:00:39;;;;;;;1.52;1.20;;;7.80;99.90;;;;;;1927159;74;21062;-76
2021/05/09 03:03:05;;;;;;;8.30;1.40;;;7.90;99.90;;;;;;1926977;74;21167;-76
2021/05/09 03:05:31;;;;;;;2.95;1.25;;;7.90;99.90;;;;;;1926982;73;21149;-75
2021/05/09 03:07:57;;;;;;;2.95;1.20;;;8.00;99.90;;;;;;1927061;74;21035;-76
2021/05/09 03:10:23;;;;;;;2.10;1.25;;;7.90;99.90;;;;;;1927021;74;21143;-75
2021/05/09 03:12:49;;;;;;;5.33;1.42;;;8.00;99.90;;;;;;1926885;74;21142;-76
2021/05/09 03:15:15;;;;;;;4.72;1.30;;;7.90;99.90;;;;;;1927087;73;21117;-76
2021/05/09 03:17:41;;;;;;;1.45;1.10;;;7.80;99.90;;;;;;1926933;74;21085;-75
2021/05/09 03:20:08;;;;;;;1.27;1.07;;;7.90;99.90;;;;;;1927057;74;21176;-76
2021/05/09 03:22:34;;;;;;;1.17;1.07;;;7.90;99.90;;;;;;1927016;74;21087;-74
2021/05/09 03:25:00;;;;;;;3.15;1.32;;;8.00;99.90;;;;;;1927009;74;21498;-75
2021/05/09 03:27:26;;;;;;;2.08;1.27;;;8.00;99.90;;;;;;1927014;73;21449;-75
2021/05/09 03:29:52;;;;;;;1.35;0.98;;;7.90;99.90;;;;;;1927138;73;21462;-75
2021/05/09 03:32:18;;;;;;;0.95;0.68;;;7.90;99.90;;;;;;1927173;73;21062;-77
2021/05/09 03:34:44;;;;;;;1.07;0.95;;;7.90;99.90;;;;;;1927133;73;21035;-77
2021/05/09 03:37:11;;;;;;;3.02;1.20;;;8.00;99.90;;;;;;1927276;73;21040;-77
2021/05/09 03:39:38;;;;;;;1.62;1.02;;;7.90;99.90;;;;;;1927578;74;21082;-77
2021/05/09 03:42:04;;;;;;;2.02;1.00;;;7.90;99.90;;;;;;1927383;74;21518;-76
2021/05/09 03:44:30;;;;;;;1.35;1.10;;;7.90;99.90;;;;;;1927555;73;21434;-77
2021/05/09 03:46:56;;;;;;;1.10;1.00;;;7.90;99.90;;;;;;1927437;74;21563;-77
2021/05/09 03:49:22;;;;;;;2.05;1.15;;;7.80;99.90;;;;;;1927588;74;21129;-77
2021/05/09 03:51:48;;;;;;;2.33;1.25;;;7.80;99.90;;;;;;1927358;73;21090;-77
2021/05/09 03:54:14;;;;;;;1.10;1.00;;;7.80;99.90;;;;;;1927541;73;21152;-77
2021/05/09 03:56:40;;;;;;;1.00;0.88;;;7.90;99.90;;;;;;1927387;74;21175;-77
2021/05/09 03:59:07;;;;;;;3.50;1.22;;;7.80;99.90;;;;;;1927520;74;21124;-77
2021/05/09 04:01:33;;;;;;;3.05;1.20;;;7.90;99.90;;;;;;1927324;74;21058;-77
2021/05/09 04:03:59;;;;;;;1.20;1.10;;;7.70;99.90;;;;;;1927427;74;21136;-77
2021/05/09 04:06:25;;;;;;;2.62;1.00;;;7.70;99.90;;;;;;1927552;74;21078;-77
2021/05/09 04:08:51;;;;;;;5.03;1.67;;;7.70;99.90;;;;;;1927451;74;21062;-77
2021/05/09 04:11:18;;;;;;;2.55;1.10;;;7.70;99.90;;;;;;1927490;74;21194;-77
2021/05/09 04:13:44;;;;;;;1.30;1.20;;;7.70;99.90;;;;;;1927582;74;21066;-77
2021/05/09 04:16:10;;;;;;;2.30;1.15;;;7.80;99.90;;;;;;1927565;74;21136;-77
2021/05/09 04:18:36;;;;;;;1.55;1.05;;;7.70;99.90;;;;;;1927424;74;21148;-77
2021/05/09 04:21:03;;;;;;;0.75;0.75;;;7.80;99.90;;;;;;1889167;74;21061;-77
2021/05/09 04:23:29;;;;;;;1.70;1.20;;;8.00;99.90;;;;;;1927421;73;21069;-77
2021/05/09 04:25:55;;;;;;;1.65;1.25;;;8.00;99.90;;;;;;1927437;74;21079;-77
2021/05/09 04:28:21;;;;;;;1.98;1.35;;;8.00;99.90;;;;;;1927438;74;21494;-77
2021/05/09 04:30:47;;;;;;;1.70;1.35;;;8.00;99.90;;;;;;1927479;74;21438;-77
2021/05/09 04:33:13;;;;;;;1.12;1.07;;;8.10;99.90;;;;;;1927431;74;21544;-77
2021/05/09 04:35:39;;;;;;;4.65;2.02;;;8.20;99.90;;;;;;1927483;74;21066;-77
2021/05/09 04:38:05;;;;;;;2.33;1.65;;;8.20;99.90;;;;;;1927394;73;21090;-77
2021/05/09 04:40:32;;;;;;;5.10;2.45;;;8.20;99.90;;;;;;1927424;74;21036;-77
2021/05/09 04:42:58;;;;;;;6.40;2.30;;;8.30;99.90;;;;;;1927433;74;21058;-77
2021/05/09 04:45:24;;;;;;;5.80;2.42;;;8.30;99.90;;;;;;1927437;74;21135;-77
2021/05/09 04:47:50;;;;;;;4.00;2.30;;;8.40;99.90;;;;;;1927479;74;21062;-77
2021/05/09 04:50:16;;;;;;;3.22;2.05;;;8.40;99.90;;;;;;1927525;73;21071;-77
2021/05/09 04:52:42;;;;;;;3.95;2.05;;;8.40;99.90;;;;;;1927448;74;21046;-78
2021/05/09 04:55:08;;;;;;;1.82;1.60;;;8.60;99.90;;;;;;1927628;74;21135;-79
2021/05/09 04:57:34;;;;;;;2.27;1.50;;;8.60;99.90;;;;;;1927503;74;21144;-79
2021/05/09 05:00:01;;;;;;;7.00;2.00;;;8.60;99.90;;;;;;1927472;74;21108;-79
2021/05/09 05:02:27;;;;;;;4.53;1.98;;;8.60;99.90;;;;;;1927387;73;21070;-79
2021/05/09 05:04:53;;;;;;;6.12;1.42;;;8.60;99.90;;;;;;1927380;74;21066;-79
2021/05/09 05:07:19;;;;;;;3.22;1.80;;;8.60;99.90;;;;;;1927423;74;21070;-79
2021/05/09 05:09:45;;;;;;;2.27;1.70;;;8.90;99.90;;;;;;1927632;74;21078;-79
2021/05/09 05:12:12;;;;;;;5.55;1.85;;;8.90;99.90;;;;;;1927572;74;21060;-77
2021/05/09 05:14:38;;;;;;;3.60;1.55;;;8.90;99.90;;;;;;1927750;74;21051;-76
2021/05/09 05:17:05;;;;;;;3.55;1.92;;;9.00;99.90;;;;;;1927605;74;21019;-76
2021/05/09 05:19:32;;;;;;;3.02;1.90;;;9.10;99.90;;;;;;1927460;74;21038;-76
2021/05/09 05:21:58;;;;;;;2.90;1.75;;;9.10;99.90;;;;;;1927739;74;21109;-76
2021/05/09 05:24:24;;;;;;;2.83;1.85;;;9.10;99.90;;;;;;1927561;74;21132;-76
2021/05/09 05:26:50;;;;;;;2.60;1.52;;;9.10;99.90;;;;;;1927536;73;21069;-75
2021/05/09 05:29:16;;;;;;;3.47;1.70;;;9.20;99.90;;;;;;1927547;74;21078;-75
2021/05/09 05:31:44;;;;;;;3.22;1.45;;;9.30;99.90;;;;;;1927609;74;21070;-75
2021/05/09 05:34:10;;;;;;;3.17;1.85;;;9.30;99.90;;;;;;1927463;74;21135;-75
2021/05/09 05:39:22;;;;;;;2.42;1.67;;;9.50;99.90;;;;;;1879468;76;21428;-72
2021/05/09 05:41:48;;;;;;;4.95;1.92;;;9.60;99.90;;;;;;1879328;76;21596;-73
2021/05/09 05:44:14;;;;;;;2.22;1.45;;;9.70;99.90;;;;;;1879257;76;21080;-72
2021/05/09 05:46:40;;;;;;;3.65;1.80;;;9.80;99.90;;;;;;1879439;76;21153;-72
2021/05/09 05:49:06;;;;;;;11.78;1.82;;;10.00;99.90;;;;;;1879183;76;21119;-73
2021/05/09 05:51:32;;;;;;;7.62;1.55;;;10.00;99.90;;;;;;1879223;76;21112;-73
2021/05/09 05:53:58;;;;;;;3.67;1.60;;;10.10;99.90;;;;;;1879227;76;21247;-74
2021/05/09 05:56:25;;;;;;;2.35;1.60;;;10.30;99.90;;;;;;1879180;76;21115;-73
2021/05/09 05:58:51;;;;;;;2.70;1.72;;;10.50;99.90;;;;;;1879181;76;21095;-73
2021/05/09 06:01:17;;;;;;;1.90;1.50;;;10.70;99.90;;;;;;1879270;76;21408;-74
2021/05/09 06:03:43;;;;;;;10.75;1.98;;;10.90;99.90;;;;;;1879196;76;21531;-74
2021/05/09 06:06:09;;;;;;;1.60;1.40;;;11.20;99.90;;;;;;1879091;76;21535;-74
2021/05/09 06:08:35;;;;;;;1.47;1.37;;;11.40;99.90;;;;;;1879311;76;21436;-74
2021/05/09 06:11:02;;;;;;;3.30;1.37;;;11.50;99.90;;;;;;1879251;76;21099;-77
2021/05/09 06:13:28;;;;;;;6.53;1.62;;;11.60;99.90;;;;;;1879298;76;21114;-74
2021/05/09 06:15:54;;;;;;;6.55;1.72;;;11.70;99.90;;;;;;1879399;76;21149;-75
2021/05/09 06:18:20;;;;;;;4.03;1.57;;;11.80;99.90;;;;;;1879358;76;21076;-75
2021/05/09 06:20:46;;;;;;;3.33;1.95;;;11.90;99.90;;;;;;1879103;76;21112;-74
2021/05/09 06:23:12;;;;;;;1.77;1.32;;;12.20;99.90;;;;;;1879224;76;21560;-75
2021/05/09 06:25:38;;;;;;;2.35;1.70;;;12.30;99.90;;;;;;1879195;76;21567;-75
2021/05/09 06:28:04;;;;;;;1.92;1.25;;;12.50;99.90;;;;;;1879196;76;21577;-75
2021/05/09 06:30:31;;;;;;;3.55;1.45;;;12.60;99.90;;;;;;1879444;76;21486;-78
2021/05/09 06:32:57;;;;;;;3.25;1.60;;;13.10;99.90;;;;;;1879131;76;21497;-76
2021/05/09 06:35:23;;;;;;;2.55;1.90;;;13.10;99.90;;;;;;1879290;76;21129;-76
2021/05/09 06:37:54;;;;;;;2.58;1.52;;;13.10;99.90;;;;;;1879111;76;21144;-76
2021/05/09 06:40:20;;;;;;;1.17;1.07;;;13.40;99.90;;;;;;1878892;75;21120;-76
2021/05/09 06:42:47;;;;;;;3.20;1.70;;;13.50;99.90;;;;;;1879253;76;21086;-77
2021/05/09 06:45:13;;;;;;;5.40;0.90;;;13.90;99.90;;;;;;1879065;76;21090;-77
2021/05/09 06:47:40;;;;;;;1.70;1.02;;;14.70;99.90;;;;;;1879296;75;21095;-76
2021/05/09 06:50:06;;;;;;;1.20;1.10;;;15.60;99.90;;;;;;1879376;76;21157;-76
2021/05/09 06:52:32;;;;;;;4.15;1.17;;;16.40;99.90;;;;;;1879295;76;21075;-75
2021/05/09 06:54:58;;;;;;;4.65;0.85;;;16.90;99.90;;;;;;1879117;76;21143;-75
2021/05/09 06:57:24;;;;;;;1.27;0.80;;;17.60;99.90;;;;;;1879330;76;21083;-76
2021/05/09 06:59:50;;;;;;;1.25;0.98;;;18.00;99.90;;;;;;1879074;76;21160;-76
2021/05/09 07:02:16;;;;;;;0.98;0.88;;;17.90;99.90;;;;;;1879403;76;21087;-75
2021/05/09 07:04:42;;;;;;;0.88;0.70;;;18.00;99.90;;;;;;1879095;76;21069;-76
2021/05/09 07:07:09;;;;;;;2.05;1.12;;;18.70;99.90;;;;;;1879342;75;21523;-76
2021/05/09 07:09:35;;;;;;;3.05;0.75;;;19.20;99.90;;;;;;1879188;76;21499;-77
2021/05/09 07:12:01;;;;;;;1.17;0.98;;;19.20;99.90;;;;;;1879164;76;21491;-77
2021/05/09 07:14:27;;;;;;;1.37;0.95;;;18.70;99.90;;;;;;1879268;76;21463;-77
2021/05/09 07:16:53;;;;;;;3.35;1.55;;;19.10;99.90;;;;;;1879189;76;21531;-75
2021/05/09 07:19:19;;;;;;;1.12;0.85;;;19.30;99.90;;;;;;1879175;76;21535;-76
2021/05/09 07:21:49;;;;;;;0.88;0.78;;;18.50;99.90;;;;;;1879263;76;21108;-75
2021/05/09 07:24:13;;;;;;;1.07;0.80;;;18.80;99.90;;;;;;1878731;76;21091;-76
2021/05/09 07:26:39;;;;;;;3.80;0.75;;;19.50;99.90;;;;;;1879251;76;21122;-77
2021/05/09 07:29:05;;;;;;;2.37;0.95;;;19.90;99.90;;;;;;1879298;76;21056;-74
2021/05/09 07:31:40;;;;;;;1.07;0.70;;;20.00;99.90;;;;;;1879062;76;21509;-73
2021/05/09 07:34:02;;;;;;;1.17;0.75;;;20.60;99.90;;;;;;1878256;76;21498;-74
2021/05/09 07:36:28;;;;;;;4.58;0.80;;;20.70;99.90;;;;;;1879250;74;21143;-74
2021/05/09 07:38:54;;;;;;;0.90;0.75;;;20.40;99.90;;;;;;1879474;74;21051;-74
2021/05/09 07:41:21;;;;;;;0.70;0.70;;;19.90;99.90;;;;;;1879113;74;21044;-74
2021/05/09 07:43:48;;;;;;;1.10;0.78;;;20.10;99.90;;;;;;1879310;76;21115;-73
2021/05/09 07:46:14;;;;;;;2.08;0.80;;;20.00;99.90;;;;;;1879122;76;21111;-74
2021/05/09 07:48:40;;;;;;;0.60;0.60;;;20.30;99.90;;;;;;1879363;76;21083;-76
2021/05/09 07:51:06;;;;;;;1.70;0.70;;;20.30;99.90;;;;;;1879273;76;21181;-74
2021/05/09 07:53:32;;;;;;;0.62;0.60;;;20.40;99.90;;;;;;1879431;75;21140;-74
2021/05/09 07:55:58;;;;;;;1.32;0.90;;;20.90;99.90;;;;;;1879139;76;21130;-75
2021/05/09 07:58:25;;;;;;;0.88;0.70;;;21.40;99.90;;;;;;1879324;76;21083;-75
2021/05/09 08:00:51;;;;;;;0.82;0.50;;;22.20;99.90;;;;;;1879144;75;21157;-72
2021/05/09 08:03:17;;;;;;;6.75;0.70;;;21.80;99.90;;;;;;1879288;76;21092;-75
2021/05/09 08:05:44;;;;;;;1.47;0.75;;;21.70;99.90;;;;;;1879282;76;21083;-75
2021/05/09 08:08:11;;;;;;;0.55;0.50;;;22.30;99.90;;;;;;1879269;76;21563;-77
2021/05/09 08:10:38;;;;;;;0.55;0.50;;;22.60;99.90;;;;;;1879093;75;21559;-73
2021/05/09 08:13:04;;;;;;;0.45;0.45;;;21.80;99.90;;;;;;1879267;76;21123;-81
2021/05/09 08:15:30;;;;;;;0.72;0.55;;;22.00;99.90;;;;;;1879108;76;21532;-75
2021/05/09 08:17:57;;;;;;;0.85;0.50;;;21.80;99.90;;;;;;1879307;76;21055;-75
2021/05/09 08:20:23;;;;;;;1.60;0.70;;;22.20;99.90;;;;;;1879096;76;21071;-75
2021/05/09 08:22:49;;;;;;;1.10;0.55;;;22.50;99.90;;;;;;1879095;76;21080;-75
2021/05/09 08:25:16;;;;;;;0.68;0.33;;;22.50;99.90;;;;;;1879111;76;21075;-75
2021/05/09 08:27:42;;;;;;;3.20;0.50;;;22.70;99.90;;;;;;1879118;76;21472;-75
2021/05/09 08:30:08;;;;;;;0.75;0.65;;;22.70;99.70;;;;;;1879294;75;21610;-75
2021/05/09 08:32:34;;;;;;;2.05;0.50;;;22.90;99.60;;;;;;1879192;74;21146;-75
2021/05/09 08:35:02;;;;;;;1.65;0.70;;;23.00;99.30;;;;;;1879260;76;21214;-75
2021/05/09 08:37:28;;;;;;;2.15;0.47;;;22.90;99.20;;;;;;1879159;75;21194;-75
2021/05/09 08:39:54;;;;;;;7.08;1.15;;;23.00;98.60;;;;;;1879183;76;21104;-75
2021/05/09 08:42:21;;;;;;;1.05;0.50;;;23.30;98.80;;;;;;1879139;76;21189;-75
2021/05/09 08:44:47;;;;;;;3.65;0.60;;;23.50;97.70;;;;;;1879293;76;21100;-75
2021/05/09 08:47:13;;;;;;;1.42;0.80;;;23.70;97.20;;;;;;1882046;76;21087;-75
2021/05/09 08:49:39;;;;;;;0.40;0.40;;;23.90;97.10;;;;;;1879363;76;21051;-74
2021/05/09 08:52:05;;;;;;;0.55;0.50;;;24.20;97.30;;;;;;1879362;76;21510;-74
2021/05/09 08:54:32;;;;;;;0.30;0.30;;;24.40;96.30;;;;;;1879324;76;21514;-74
2021/05/09 08:56:58;;;;;;;1.92;0.50;;;25.10;94.30;;;;;;1879339;76;21526;-74
2021/05/09 08:59:24;;;;;;;1.00;0.40;;;25.00;93.40;;;;;;1879238;76;21464;-74
2021/05/09 09:01:50;;;;;;;0.57;0.53;;;25.00;93.30;;;;;;1879140;75;21047;-74
2021/05/09 09:04:16;;;;;;;0.30;0.30;;;25.00;92.50;;;;;;1879410;76;21153;-74
2021/05/09 09:06:42;;;;;;;0.80;0.70;;;24.90;93.20;;;;;;1879150;75;21116;-71
2021/05/09 09:09:08;;;;;;;0.50;0.50;;;25.10;92.80;;;;;;1879447;76;21115;-76
2021/05/09 09:11:34;;;;;;;0.62;0.60;;;25.50;91.80;;;;;;1879450;75;21193;-70
2021/05/09 09:14:01;;;;;;;0.30;0.30;;;24.90;93.00;;;;;;1879353;76;21099;-75
2021/05/09 09:16:27;;;;;;;0.50;0.50;;;25.30;92.50;;;;;;1879308;76;21107;-78
2021/05/09 09:18:54;;;;;;;1.07;0.68;;;25.70;91.40;;;;;;1879219;76;21052;-69
2021/05/09 09:21:20;;;;;;;1.02;0.55;;;25.70;91.80;;;;;;1879235;76;21522;-74
2021/05/09 09:23:46;;;;;;;1.17;0.45;;;25.80;90.80;;;;;;1879425;76;21427;-74
2021/05/09 09:26:12;;;;;;;2.50;0.50;;;25.90;91.40;;;;;;1879359;76;21609;-74
2021/05/09 09:28:38;;;;;;;0.65;0.40;;;26.20;90.90;;;;;;1879343;76;21648;-79
2021/05/09 09:31:04;;;;;;;0.82;0.60;;;26.40;89.40;;;;;;1879025;76;21514;-74
2021/05/09 09:33:30;;;;;;;0.40;0.40;;;26.60;90.00;;;;;;1879290;76;21051;-74
2021/05/09 09:35:59;;;;;;;7.08;0.60;;;26.30;90.30;;;;;;1879127;76;21071;-74
2021/05/09 09:38:24;;;;;;;0.25;0.25;;;26.80;88.20;;;;;;1878987;74;21135;-74
2021/05/09 09:40:51;;;;;;;1.60;0.50;;;27.20;85.70;;;;;;1879228;76;21511;-73
2021/05/09 09:43:17;;;;;;;0.45;0.28;;;27.40;85.20;;;;;;1879148;76;21455;-74
2021/05/09 09:45:43;;;;;;;0.68;0.50;;;27.60;82.50;;;;;;1879197;75;21083;-75
2021/05/09 09:48:09;;;;;;;0.98;0.55;;;27.50;81.40;;;;;;1879129;74;21078;-74
2021/05/09 09:50:36;;;;;;;2.02;0.60;;;27.40;82.20;;;;;;1879132;76;21148;-75
2021/05/09 09:53:02;;;;;;;1.25;0.47;;;27.80;76.20;;;;;;1878964;76;21173;-74
2021/05/09 09:55:28;;;;;;;0.75;0.40;;;28.00;72.80;;;;;;1879038;76;21130;-74
2021/05/09 09:57:54;;;;;;;0.65;0.30;;;28.60;73.90;;;;;;1879164;76;21463;-74
2021/05/09 10:00:20;;;;;;;3.15;0.57;;;29.50;74.30;;;;;;1878980;76;21483;-74
2021/05/09 10:02:46;;;;;;;1.80;0.40;;;29.60;69.00;;;;;;1879002;76;21467;-75
2021/05/09 10:05:13;;;;;;;3.20;0.50;;;29.80;64.00;;;;;;1879011;76;21487;-75
2021/05/09 10:07:39;;;;;;;0.53;0.35;;;29.70;63.10;;;;;;1879142;76;21624;-74
2021/05/09 10:10:05;;;;;;;0.53;0.35;;;29.50;57.90;;;;;;1879057;76;21510;-75
2021/05/09 10:12:31;;;;;;;0.37;0.35;;;29.80;57.60;;;;;;1879064;76;21111;-75
2021/05/09 10:14:57;;;;;;;0.80;0.35;;;30.40;58.90;;;;;;1879123;76;21071;-75
2021/05/09 10:17:23;;;;;;;2.70;0.40;;;30.30;54.40;;;;;;1879104;76;21110;-75
2021/05/09 10:19:49;;;;;;;2.05;0.30;;;30.50;52.90;;;;;;1879143;76;21173;-74
2021/05/09 10:22:15;;;;;;;0.20;0.20;;;30.10;52.00;;;;;;1879109;76;21055;-75
2021/05/09 10:24:42;;;;;;;0.82;0.40;;;29.90;52.10;;;;;;1879029;74;21127;-74
2021/05/09 10:27:14;;;;;;;0.95;0.20;;;29.40;49.60;;;;;;1879007;76;21165;-75
2021/05/09 10:29:45;;;;;;;0.20;0.20;;;29.00;52.00;;;;;;1868397;76;21044;-74
2021/05/09 10:32:08;;;;;;;0.28;0.28;;;29.20;52.50;;;;;;1861412;77;21092;-74
2021/05/09 10:34:34;;;;;;;3.92;0.50;;;29.50;52.40;;;;;;1862923;77;21072;-74
2021/05/09 10:37:00;;;;;;;0.50;0.30;;;29.30;51.20;;;;;;1863123;77;21067;-74
2021/05/09 10:39:26;;;;;;;0.40;0.40;;;29.20;51.50;;;;;;1862852;77;21146;-74
2021/05/09 10:41:52;;;;;;;0.50;0.25;;;29.20;52.10;;;;;;1862968;77;21079;-74
2021/05/09 10:44:18;;;;;;;0.37;0.35;;;29.20;52.70;;;;;;1862905;77;21122;-74
2021/05/09 10:46:44;;;;;;;0.68;0.40;;;29.20;51.10;;;;;;1862934;77;21040;-75
2021/05/09 10:49:10;;;;;;;0.20;0.20;;;29.20;49.70;;;;;;1862967;77;21072;-74
2021/05/09 10:51:37;;;;;;;1.22;0.50;;;29.70;49.70;;;;;;1862938;77;21079;-74
2021/05/09 10:54:03;;;;;;;1.55;0.40;;;30.10;46.90;;;;;;1862856;77;21511;-74
2021/05/09 10:56:30;;;;;;;0.68;0.23;;;30.00;48.00;;;;;;1863105;77;21162;-74
2021/05/09 10:58:57;;;;;;;1.55;0.45;;;29.90;45.80;;;;;;1863313;77;21076;-74
2021/05/09 11:01:31;;;;;;;0.40;0.40;;;29.70;46.20;;;;;;1863145;77;21091;-74
2021/05/09 11:03:57;;;;;;;0.57;0.30;;;29.90;45.70;;;;;;1863126;77;21502;-75
2021/05/09 11:06:23;;;;;;;0.45;0.20;;;30.10;45.10;;;;;;1863200;77;21491;-74
2021/05/09 11:08:55;;;;;;;0.75;0.50;;;29.90;45.90;;;;;;1863199;77;21080;-75
2021/05/09 11:11:17;;;;;;;0.53;0.20;;;29.60;46.00;;;;;;1861288;77;21150;-75
2021/05/09 11:13:43;;;;;;;2.22;0.28;;;29.50;45.70;;;;;;1863380;76;21090;-74
2021/05/09 11:16:10;;;;;;;2.77;0.20;;;29.50;45.30;;;;;;1863306;77;21255;-75
2021/05/09 11:18:36;;;;;;;0.85;0.30;;;29.60;45.50;;;;;;1863240;77;21067;-75
2021/05/09 11:21:02;;;;;;;0.95;0.20;;;29.70;45.40;;;;;;1863309;77;21512;-75
2021/05/09 11:23:28;;;;;;;0.68;0.40;;;29.80;46.10;;;;;;1863260;77;21479;-74
2021/05/09 11:25:54;;;;;;;0.42;0.40;;;29.70;44.20;;;;;;1863799;77;21448;-74
2021/05/09 11:28:20;;;;;;;0.88;0.28;;;29.90;44.70;;;;;;1863717;77;21161;-75
2021/05/09 11:30:47;;;;;;;0.28;0.28;;;29.90;43.20;;;;;;1863248;77;21056;-75
2021/05/09 11:33:13;;;;;;;1.55;0.60;;;29.90;44.00;;;;;;1863251;77;21161;-74
2021/05/09 11:35:39;;;;;;;0.13;0.13;;;30.10;43.50;;;;;;1863387;77;21193;-74
2021/05/09 11:38:05;;;;;;;0.62;0.30;;;29.90;43.40;;;;;;1863296;77;21149;-74
2021/05/09 11:40:31;;;;;;;0.20;0.20;;;29.90;44.20;;;;;;1863198;76;21052;-73
2021/05/09 11:42:57;;;;;;;1.00;0.25;;;30.10;43.40;;;;;;1863177;77;21047;-73
2021/05/09 11:45:23;;;;;;;0.10;0.10;;;30.10;41.70;;;;;;1863183;77;21589;-74
2021/05/09 11:47:50;;;;;;;2.12;0.20;;;30.00;43.60;;;;;;1863191;77;21549;-74
2021/05/09 11:50:16;;;;;;;1.20;0.40;;;30.20;43.30;;;;;;1863259;77;21467;-74
2021/05/09 11:52:43;;;;;;;0.53;0.40;;;30.80;44.40;;;;;;1863388;77;21417;-74
2021/05/09 11:55:09;;;;;;;0.30;0.30;;;31.30;42.50;;;;;;1863193;77;21153;-75
2021/05/09 11:57:36;;;;;;;0.70;0.50;;;31.70;42.10;;;;;;1862957;77;21569;-74
2021/05/09 12:00:02;;;;;;;0.40;0.40;;;32.00;41.70;;;;;;1862911;77;21495;-74
2021/05/09 12:02:28;;;;;;;0.20;0.20;;;31.80;41.50;;;;;;1863024;77;21577;-74
2021/05/09 12:04:55;;;;;;;2.55;0.45;;;31.50;41.90;;;;;;1863003;77;21048;-74
2021/05/09 12:07:21;;;;;;;0.45;0.30;;;31.30;40.50;;;;;;1862872;77;21108;-74
2021/05/09 12:09:47;;;;;;;1.12;0.30;;;30.70;41.10;;;;;;1862901;77;21485;-73
2021/05/09 12:12:13;;;;;;;0.70;0.40;;;30.60;42.60;;;;;;1863087;77;21488;-73
2021/05/09 12:14:40;;;;;;;0.72;0.35;;;31.00;42.20;;;;;;1862821;77;21072;-74
2021/05/09 12:17:06;;;;;;;0.20;0.20;;;31.30;41.80;;;;;;1863016;77;21153;-74
2021/05/09 12:19:32;;;;;;;0.47;0.20;;;31.50;39.80;;;;;;1863001;77;21083;-74
2021/05/09 12:21:58;;;;;;;0.65;0.30;;;31.80;39.50;;;;;;1863191;77;21068;-74
2021/05/09 12:24:24;;;;;;;1.27;0.28;;;32.30;38.60;;;;;;1863122;77;21047;-76
2021/05/09 12:26:50;;;;;;;0.40;0.20;;;32.80;38.30;;;;;;1862931;77;21056;-77
2021/05/09 12:29:16;;;;;;;0.40;0.35;;;32.80;38.30;;;;;;1862938;77;21165;-76
2021/05/09 12:31:42;;;;;;;2.15;0.30;;;32.50;38.30;;;;;;1863077;77;21145;-75
2021/05/09 12:34:10;;;;;;;0.15;0.10;;;32.20;38.80;;;;;;1863015;77;21196;-76
2021/05/09 12:36:38;;;;;;;0.37;0.30;;;32.30;38.90;;;;;;1863092;77;21137;-76
2021/05/09 12:39:05;;;;;;;0.47;0.15;;;32.50;40.60;;;;;;1863012;77;21520;-75
2021/05/09 12:41:31;;;;;;;0.62;0.30;;;32.30;38.80;;;;;;1863118;77;21091;-76
2021/05/09 12:43:57;;;;;;;0.20;0.20;;;32.60;38.50;;;;;;1863096;77;21145;-76
2021/05/09 12:46:23;;;;;;;0.40;0.30;;;32.50;39.10;;;;;;1863032;77;21149;-74